sensor_id;sensor_type;location;lat;lon;timestamp;P1;durP1;ratioP1;P2;durP2;ratioP2
75866;SDS011;64513;56.258;43.980;2022-10-31T00:01:18;2.30;;;0.63;;
75866;SDS011;64513;56.258;43.980;2022-10-31T00:03:44;2.78;;;0.75;;
75866;SDS011;64513;56.258;43.980;2022-10-31T00:06:10;2.33;;;0.53;;
75866;SDS011;64513;56.258;43.980;2022-10-31T00:08:36;1.88;;;0.35;;
75866;SDS011;64513;56.258;43.980;2022-10-31T00:11:01;3.13;;;0.57;;
75866;SDS011;64513;56.258;43.980;2022-10-31T00:13:27;2.05;;;0.50;;
75866;SDS011;64513;56.258;43.980;2022-10-31T00:15:52;2.33;;;0.60;;
75866;SDS011;64513;56.258;43.980;2022-10-31T00:18:18;2.23;;;0.57;;
75866;SDS011;64513;56.258;43.980;2022-10-31T00:20:43;2.63;;;0.60;;
75866;SDS011;64513;56.258;43.980;2022-10-31T00:23:09;1.93;;;0.50;;
75866;SDS011;64513;56.258;43.980;2022-10-31T00:25:36;2.95;;;0.60;;
75866;SDS011;64513;56.258;43.980;2022-10-31T00:28:04;2.87;;;0.60;;
75866;SDS011;64513;56.258;43.980;2022-10-31T00:30:31;4.80;;;2.35;;
75866;SDS011;64513;56.258;43.980;2022-10-31T00:32:57;2.22;;;0.70;;
75866;SDS011;64513;56.258;43.980;2022-10-31T00:35:22;2.88;;;0.80;;
75866;SDS011;64513;56.258;43.980;2022-10-31T00:37:48;2.60;;;0.77;;
75866;SDS011;64513;56.258;43.980;2022-10-31T00:40:13;3.23;;;0.70;;
75866;SDS011;64513;56.258;43.980;2022-10-31T00:42:39;2.77;;;0.60;;
75866;SDS011;64513;56.258;43.980;2022-10-31T00:45:05;2.20;;;0.70;;
75866;SDS011;64513;56.258;43.980;2022-10-31T00:47:31;2.75;;;0.60;;
75866;SDS011;64513;56.258;43.980;2022-10-31T00:49:57;2.13;;;0.70;;
75866;SDS011;64513;56.258;43.980;2022-10-31T00:52:22;1.83;;;0.40;;
75866;SDS011;64513;56.258;43.980;2022-10-31T00:54:47;3.47;;;0.98;;
75866;SDS011;64513;56.258;43.980;2022-10-31T00:57:13;2.93;;;0.57;;
75866;SDS011;64513;56.258;43.980;2022-10-31T00:59:38;2.63;;;0.60;;
75866;SDS011;64513;56.258;43.980;2022-10-31T01:02:04;4.93;;;0.70;;
75866;SDS011;64513;56.258;43.980;2022-10-31T01:04:29;3.80;;;0.73;;
75866;SDS011;64513;56.258;43.980;2022-10-31T01:06:55;2.27;;;0.67;;
75866;SDS011;64513;56.258;43.980;2022-10-31T01:09:20;2.63;;;0.70;;
75866;SDS011;64513;56.258;43.980;2022-10-31T01:11:45;2.90;;;1.00;;
75866;SDS011;64513;56.258;43.980;2022-10-31T01:14:11;1.97;;;0.40;;
75866;SDS011;64513;56.258;43.980;2022-10-31T01:16:36;3.80;;;0.60;;
75866;SDS011;64513;56.258;43.980;2022-10-31T01:19:02;2.90;;;0.70;;
75866;SDS011;64513;56.258;43.980;2022-10-31T01:21:28;2.57;;;0.60;;
75866;SDS011;64513;56.258;43.980;2022-10-31T01:23:54;2.50;;;0.70;;
75866;SDS011;64513;56.258;43.980;2022-10-31T01:26:24;4.55;;;0.80;;
75866;SDS011;64513;56.258;43.980;2022-10-31T01:28:59;3.88;;;0.60;;
75866;SDS011;64513;56.258;43.980;2022-10-31T01:31:28;3.97;;;0.77;;
75866;SDS011;64513;56.258;43.980;2022-10-31T01:33:55;3.30;;;0.90;;
75866;SDS011;64513;56.258;43.980;2022-10-31T01:38:51;5.75;;;1.02;;
75866;SDS011;64513;56.258;43.980;2022-10-31T01:41:20;2.67;;;0.70;;
75866;SDS011;64513;56.258;43.980;2022-10-31T01:46:19;4.07;;;0.82;;
75866;SDS011;64513;56.258;43.980;2022-10-31T01:48:49;3.13;;;0.85;;
75866;SDS011;64513;56.258;43.980;2022-10-31T01:51:16;3.50;;;0.82;;
75866;SDS011;64513;56.258;43.980;2022-10-31T01:53:44;2.88;;;0.90;;
75866;SDS011;64513;56.258;43.980;2022-10-31T01:56:12;3.43;;;0.90;;
75866;SDS011;64513;56.258;43.980;2022-10-31T01:58:39;3.13;;;0.93;;
75866;SDS011;64513;56.258;43.980;2022-10-31T02:01:05;3.95;;;0.88;;
75866;SDS011;64513;56.258;43.980;2022-10-31T02:03:31;2.80;;;0.93;;
75866;SDS011;64513;56.258;43.980;2022-10-31T02:05:57;2.70;;;0.90;;
75866;SDS011;64513;56.258;43.980;2022-10-31T02:08:27;3.67;;;0.93;;
75866;SDS011;64513;56.258;43.980;2022-10-31T02:10:54;3.40;;;0.82;;
75866;SDS011;64513;56.258;43.980;2022-10-31T02:13:21;3.53;;;0.83;;
75866;SDS011;64513;56.258;43.980;2022-10-31T02:15:51;5.15;;;0.70;;
75866;SDS011;64513;56.258;43.980;2022-10-31T02:18:19;2.55;;;0.63;;
75866;SDS011;64513;56.258;43.980;2022-10-31T02:20:48;4.53;;;0.77;;
75866;SDS011;64513;56.258;43.980;2022-10-31T02:31:40;3.45;;;0.77;;
75866;SDS011;64513;56.258;43.980;2022-10-31T02:34:28;3.60;;;1.10;;
75866;SDS011;64513;56.258;43.980;2022-10-31T02:37:08;3.58;;;1.05;;
75866;SDS011;64513;56.258;43.980;2022-10-31T02:42:31;4.60;;;0.80;;
75866;SDS011;64513;56.258;43.980;2022-10-31T02:45:25;2.80;;;0.70;;
75866;SDS011;64513;56.258;43.980;2022-10-31T02:48:00;3.17;;;0.82;;
75866;SDS011;64513;56.258;43.980;2022-10-31T02:50:33;2.95;;;0.90;;
75866;SDS011;64513;56.258;43.980;2022-10-31T02:53:02;7.40;;;1.20;;
75866;SDS011;64513;56.258;43.980;2022-10-31T02:57:58;6.13;;;1.50;;
75866;SDS011;64513;56.258;43.980;2022-10-31T03:06:47;5.97;;;1.60;;
75866;SDS011;64513;56.258;43.980;2022-10-31T03:12:22;5.13;;;1.20;;
75866;SDS011;64513;56.258;43.980;2022-10-31T03:20:40;5.53;;;1.45;;
75866;SDS011;64513;56.258;43.980;2022-10-31T03:23:18;6.53;;;1.40;;
75866;SDS011;64513;56.258;43.980;2022-10-31T03:25:47;5.40;;;1.80;;
75866;SDS011;64513;56.258;43.980;2022-10-31T03:28:14;6.68;;;2.00;;
75866;SDS011;64513;56.258;43.980;2022-10-31T03:30:42;4.88;;;1.63;;
75866;SDS011;64513;56.258;43.980;2022-10-31T03:33:11;7.15;;;1.67;;
75866;SDS011;64513;56.258;43.980;2022-10-31T03:35:41;4.90;;;1.65;;
75866;SDS011;64513;56.258;43.980;2022-10-31T03:38:09;4.77;;;1.53;;
75866;SDS011;64513;56.258;43.980;2022-10-31T03:43:24;5.20;;;1.83;;
75866;SDS011;64513;56.258;43.980;2022-10-31T03:48:38;4.45;;;1.10;;
75866;SDS011;64513;56.258;43.980;2022-10-31T03:53:41;4.38;;;1.00;;
75866;SDS011;64513;56.258;43.980;2022-10-31T03:56:36;4.85;;;1.48;;
75866;SDS011;64513;56.258;43.980;2022-10-31T04:01:52;4.97;;;1.63;;
75866;SDS011;64513;56.258;43.980;2022-10-31T04:04:22;4.95;;;1.60;;
75866;SDS011;64513;56.258;43.980;2022-10-31T04:06:48;4.60;;;1.17;;
75866;SDS011;64513;56.258;43.980;2022-10-31T04:09:15;4.07;;;1.35;;
75866;SDS011;64513;56.258;43.980;2022-10-31T04:11:45;5.13;;;1.90;;
75866;SDS011;64513;56.258;43.980;2022-10-31T04:14:14;3.45;;;1.23;;
75866;SDS011;64513;56.258;43.980;2022-10-31T04:16:40;4.33;;;1.17;;
75866;SDS011;64513;56.258;43.980;2022-10-31T04:19:09;10.70;;;1.60;;
75866;SDS011;64513;56.258;43.980;2022-10-31T04:21:35;5.45;;;1.65;;
75866;SDS011;64513;56.258;43.980;2022-10-31T04:24:01;5.73;;;1.90;;
75866;SDS011;64513;56.258;43.980;2022-10-31T04:26:26;6.00;;;1.80;;
75866;SDS011;64513;56.258;43.980;2022-10-31T04:28:52;10.03;;;2.10;;
75866;SDS011;64513;56.258;43.980;2022-10-31T04:31:17;4.47;;;1.63;;
75866;SDS011;64513;56.258;43.980;2022-10-31T04:33:43;6.53;;;1.77;;
75866;SDS011;64513;56.258;43.980;2022-10-31T04:36:09;5.53;;;1.73;;
75866;SDS011;64513;56.258;43.980;2022-10-31T04:38:34;5.97;;;2.00;;
75866;SDS011;64513;56.258;43.980;2022-10-31T04:41:00;5.77;;;1.50;;
75866;SDS011;64513;56.258;43.980;2022-10-31T04:43:44;5.13;;;1.67;;
75866;SDS011;64513;56.258;43.980;2022-10-31T04:48:53;5.45;;;1.95;;
75866;SDS011;64513;56.258;43.980;2022-10-31T04:54:21;6.28;;;1.77;;
75866;SDS011;64513;56.258;43.980;2022-10-31T04:56:47;7.37;;;1.80;;
75866;SDS011;64513;56.258;43.980;2022-10-31T04:59:12;9.17;;;2.20;;
75866;SDS011;64513;56.258;43.980;2022-10-31T05:01:37;7.57;;;1.85;;
75866;SDS011;64513;56.258;43.980;2022-10-31T05:04:21;3.77;;;1.27;;
75866;SDS011;64513;56.258;43.980;2022-10-31T05:06:47;4.75;;;1.50;;
75866;SDS011;64513;56.258;43.980;2022-10-31T05:09:31;6.97;;;1.70;;
75866;SDS011;64513;56.258;43.980;2022-10-31T05:11:56;5.35;;;1.48;;
75866;SDS011;64513;56.258;43.980;2022-10-31T05:14:22;7.57;;;1.40;;
75866;SDS011;64513;56.258;43.980;2022-10-31T05:16:47;7.37;;;1.70;;
75866;SDS011;64513;56.258;43.980;2022-10-31T05:19:31;4.22;;;1.33;;
75866;SDS011;64513;56.258;43.980;2022-10-31T05:21:57;4.10;;;1.40;;
75866;SDS011;64513;56.258;43.980;2022-10-31T05:24:22;4.73;;;1.37;;
75866;SDS011;64513;56.258;43.980;2022-10-31T05:26:48;3.60;;;1.10;;
75866;SDS011;64513;56.258;43.980;2022-10-31T05:29:14;3.75;;;1.27;;
75866;SDS011;64513;56.258;43.980;2022-10-31T05:31:39;3.47;;;0.97;;
75866;SDS011;64513;56.258;43.980;2022-10-31T05:34:05;5.37;;;1.57;;
75866;SDS011;64513;56.258;43.980;2022-10-31T05:36:30;8.10;;;1.23;;
75866;SDS011;64513;56.258;43.980;2022-10-31T05:38:56;3.38;;;0.98;;
75866;SDS011;64513;56.258;43.980;2022-10-31T05:41:21;5.00;;;0.93;;
75866;SDS011;64513;56.258;43.980;2022-10-31T05:43:47;3.27;;;0.80;;
75866;SDS011;64513;56.258;43.980;2022-10-31T05:46:12;4.23;;;1.20;;
75866;SDS011;64513;56.258;43.980;2022-10-31T05:48:37;4.45;;;1.40;;
75866;SDS011;64513;56.258;43.980;2022-10-31T05:51:03;3.17;;;1.00;;
75866;SDS011;64513;56.258;43.980;2022-10-31T05:53:28;4.13;;;1.30;;
75866;SDS011;64513;56.258;43.980;2022-10-31T05:55:54;4.77;;;1.13;;
75866;SDS011;64513;56.258;43.980;2022-10-31T05:58:19;3.92;;;1.40;;
75866;SDS011;64513;56.258;43.980;2022-10-31T06:00:45;3.50;;;1.20;;
75866;SDS011;64513;56.258;43.980;2022-10-31T06:03:10;3.63;;;1.20;;
75866;SDS011;64513;56.258;43.980;2022-10-31T06:05:36;3.63;;;1.30;;
75866;SDS011;64513;56.258;43.980;2022-10-31T06:08:01;2.10;;;0.63;;
75866;SDS011;64513;56.258;43.980;2022-10-31T06:10:27;4.40;;;1.25;;
75866;SDS011;64513;56.258;43.980;2022-10-31T06:12:53;4.00;;;1.00;;
75866;SDS011;64513;56.258;43.980;2022-10-31T06:15:18;5.43;;;1.15;;
75866;SDS011;64513;56.258;43.980;2022-10-31T06:17:44;2.97;;;0.90;;
75866;SDS011;64513;56.258;43.980;2022-10-31T06:20:10;4.40;;;1.20;;
75866;SDS011;64513;56.258;43.980;2022-10-31T06:22:36;5.38;;;1.77;;
75866;SDS011;64513;56.258;43.980;2022-10-31T06:25:01;3.22;;;1.10;;
75866;SDS011;64513;56.258;43.980;2022-10-31T06:27:28;4.60;;;1.40;;
75866;SDS011;64513;56.258;43.980;2022-10-31T06:29:53;4.60;;;1.55;;
75866;SDS011;64513;56.258;43.980;2022-10-31T06:32:37;2.75;;;0.80;;
75866;SDS011;64513;56.258;43.980;2022-10-31T06:35:03;4.37;;;1.60;;
75866;SDS011;64513;56.258;43.980;2022-10-31T06:37:29;3.67;;;1.20;;
75866;SDS011;64513;56.258;43.980;2022-10-31T06:39:54;5.68;;;1.40;;
75866;SDS011;64513;56.258;43.980;2022-10-31T06:42:19;2.87;;;0.83;;
75866;SDS011;64513;56.258;43.980;2022-10-31T06:44:45;3.33;;;1.20;;
75866;SDS011;64513;56.258;43.980;2022-10-31T06:47:10;6.07;;;1.33;;
75866;SDS011;64513;56.258;43.980;2022-10-31T06:49:36;4.47;;;1.43;;
75866;SDS011;64513;56.258;43.980;2022-10-31T06:52:01;4.20;;;1.10;;
75866;SDS011;64513;56.258;43.980;2022-10-31T06:54:27;3.40;;;1.17;;
75866;SDS011;64513;56.258;43.980;2022-10-31T06:56:52;4.97;;;1.53;;
75866;SDS011;64513;56.258;43.980;2022-10-31T06:59:18;5.87;;;1.40;;
75866;SDS011;64513;56.258;43.980;2022-10-31T07:01:43;4.30;;;1.50;;
75866;SDS011;64513;56.258;43.980;2022-10-31T07:04:09;5.80;;;1.55;;
75866;SDS011;64513;56.258;43.980;2022-10-31T07:06:35;5.57;;;1.50;;
75866;SDS011;64513;56.258;43.980;2022-10-31T07:09:01;5.10;;;1.70;;
75866;SDS011;64513;56.258;43.980;2022-10-31T07:11:26;3.90;;;1.33;;
75866;SDS011;64513;56.258;43.980;2022-10-31T07:13:51;5.23;;;1.60;;
75866;SDS011;64513;56.258;43.980;2022-10-31T07:16:17;5.18;;;1.20;;
75866;SDS011;64513;56.258;43.980;2022-10-31T07:18:42;4.33;;;1.17;;
75866;SDS011;64513;56.258;43.980;2022-10-31T07:21:08;7.43;;;1.60;;
75866;SDS011;64513;56.258;43.980;2022-10-31T07:23:33;3.50;;;1.20;;
75866;SDS011;64513;56.258;43.980;2022-10-31T07:25:59;5.20;;;1.63;;
75866;SDS011;64513;56.258;43.980;2022-10-31T07:28:24;3.73;;;1.10;;
75866;SDS011;64513;56.258;43.980;2022-10-31T07:30:55;5.63;;;1.80;;
75866;SDS011;64513;56.258;43.980;2022-10-31T07:33:22;3.92;;;1.30;;
75866;SDS011;64513;56.258;43.980;2022-10-31T07:35:49;3.80;;;1.20;;
75866;SDS011;64513;56.258;43.980;2022-10-31T07:38:14;4.25;;;1.48;;
75866;SDS011;64513;56.258;43.980;2022-10-31T07:40:41;4.78;;;1.70;;
75866;SDS011;64513;56.258;43.980;2022-10-31T07:43:07;4.87;;;1.40;;
75866;SDS011;64513;56.258;43.980;2022-10-31T07:45:33;3.55;;;1.25;;
75866;SDS011;64513;56.258;43.980;2022-10-31T07:47:59;3.45;;;1.05;;
75866;SDS011;64513;56.258;43.980;2022-10-31T07:50:25;5.20;;;1.23;;
75866;SDS011;64513;56.258;43.980;2022-10-31T07:55:32;4.07;;;1.23;;
75866;SDS011;64513;56.258;43.980;2022-10-31T07:58:02;5.47;;;1.23;;
75866;SDS011;64513;56.258;43.980;2022-10-31T08:00:29;3.78;;;1.23;;
75866;SDS011;64513;56.258;43.980;2022-10-31T08:02:59;8.10;;;1.55;;
75866;SDS011;64513;56.258;43.980;2022-10-31T08:05:27;3.60;;;1.15;;
75866;SDS011;64513;56.258;43.980;2022-10-31T08:07:53;6.38;;;1.20;;
75866;SDS011;64513;56.258;43.980;2022-10-31T08:10:19;3.67;;;1.13;;
75866;SDS011;64513;56.258;43.980;2022-10-31T08:12:44;5.40;;;1.63;;
75866;SDS011;64513;56.258;43.980;2022-10-31T08:15:10;4.77;;;1.57;;
75866;SDS011;64513;56.258;43.980;2022-10-31T08:17:36;4.87;;;1.20;;
75866;SDS011;64513;56.258;43.980;2022-10-31T08:20:02;6.00;;;1.13;;
75866;SDS011;64513;56.258;43.980;2022-10-31T08:22:28;6.80;;;1.50;;
75866;SDS011;64513;56.258;43.980;2022-10-31T08:24:54;3.83;;;1.00;;
75866;SDS011;64513;56.258;43.980;2022-10-31T08:27:19;4.03;;;1.20;;
75866;SDS011;64513;56.258;43.980;2022-10-31T08:29:45;6.17;;;1.53;;
75866;SDS011;64513;56.258;43.980;2022-10-31T08:32:10;11.03;;;1.40;;
75866;SDS011;64513;56.258;43.980;2022-10-31T08:37:19;5.90;;;0.85;;
75866;SDS011;64513;56.258;43.980;2022-10-31T08:39:46;3.03;;;0.80;;
75866;SDS011;64513;56.258;43.980;2022-10-31T08:44:55;2.92;;;0.82;;
75866;SDS011;64513;56.258;43.980;2022-10-31T08:47:21;5.63;;;1.03;;
75866;SDS011;64513;56.258;43.980;2022-10-31T08:49:46;3.67;;;1.10;;
75866;SDS011;64513;56.258;43.980;2022-10-31T08:52:11;5.97;;;1.20;;
75866;SDS011;64513;56.258;43.980;2022-10-31T08:54:37;3.53;;;0.95;;
75866;SDS011;64513;56.258;43.980;2022-10-31T08:57:02;4.87;;;1.30;;
75866;SDS011;64513;56.258;43.980;2022-10-31T08:59:28;3.50;;;1.10;;
75866;SDS011;64513;56.258;43.980;2022-10-31T09:01:53;4.55;;;1.48;;
75866;SDS011;64513;56.258;43.980;2022-10-31T09:04:19;9.20;;;1.23;;
75866;SDS011;64513;56.258;43.980;2022-10-31T09:06:44;3.37;;;0.77;;
75866;SDS011;64513;56.258;43.980;2022-10-31T09:09:10;3.33;;;0.93;;
75866;SDS011;64513;56.258;43.980;2022-10-31T09:11:35;5.85;;;1.20;;
75866;SDS011;64513;56.258;43.980;2022-10-31T09:14:01;2.90;;;1.07;;
75866;SDS011;64513;56.258;43.980;2022-10-31T09:19:10;2.95;;;0.65;;
75866;SDS011;64513;56.258;43.980;2022-10-31T09:21:36;4.53;;;1.07;;
75866;SDS011;64513;56.258;43.980;2022-10-31T09:24:01;5.60;;;1.33;;
75866;SDS011;64513;56.258;43.980;2022-10-31T09:29:11;7.35;;;1.08;;
75866;SDS011;64513;56.258;43.980;2022-10-31T09:31:36;2.77;;;0.90;;
75866;SDS011;64513;56.258;43.980;2022-10-31T09:34:01;5.03;;;1.10;;
75866;SDS011;64513;56.258;43.980;2022-10-31T09:36:27;3.87;;;1.10;;
75866;SDS011;64513;56.258;43.980;2022-10-31T09:38:52;3.77;;;0.90;;
75866;SDS011;64513;56.258;43.980;2022-10-31T09:44:28;5.22;;;0.98;;
75866;SDS011;64513;56.258;43.980;2022-10-31T09:55:43;3.40;;;0.63;;
75866;SDS011;64513;56.258;43.980;2022-10-31T09:58:13;7.35;;;1.13;;
75866;SDS011;64513;56.258;43.980;2022-10-31T10:00:42;4.18;;;1.10;;
75866;SDS011;64513;56.258;43.980;2022-10-31T10:03:55;4.78;;;0.88;;
75866;SDS011;64513;56.258;43.980;2022-10-31T10:06:11;3.17;;;0.70;;
75866;SDS011;64513;56.258;43.980;2022-10-31T10:08:48;3.50;;;0.60;;
75866;SDS011;64513;56.258;43.980;2022-10-31T10:11:18;3.92;;;0.68;;
75866;SDS011;64513;56.258;43.980;2022-10-31T10:14:03;3.75;;;1.10;;
75866;SDS011;64513;56.258;43.980;2022-10-31T10:19:33;3.70;;;1.15;;
75866;SDS011;64513;56.258;43.980;2022-10-31T10:22:29;6.23;;;1.20;;
75866;SDS011;64513;56.258;43.980;2022-10-31T10:30:17;3.65;;;0.70;;
75866;SDS011;64513;56.258;43.980;2022-10-31T10:32:49;12.20;;;1.52;;
75866;SDS011;64513;56.258;43.980;2022-10-31T10:35:27;6.47;;;1.37;;
75866;SDS011;64513;56.258;43.980;2022-10-31T10:37:58;3.75;;;1.17;;
75866;SDS011;64513;56.258;43.980;2022-10-31T10:40:46;2.72;;;0.77;;
75866;SDS011;64513;56.258;43.980;2022-10-31T10:45:49;4.32;;;1.27;;
75866;SDS011;64513;56.258;43.980;2022-10-31T10:48:15;3.20;;;0.90;;
75866;SDS011;64513;56.258;43.980;2022-10-31T10:51:07;3.97;;;1.00;;
75866;SDS011;64513;56.258;43.980;2022-10-31T10:53:46;3.13;;;0.90;;
75866;SDS011;64513;56.258;43.980;2022-10-31T10:56:24;4.80;;;0.93;;
75866;SDS011;64513;56.258;43.980;2022-10-31T10:59:13;2.85;;;0.82;;
75866;SDS011;64513;56.258;43.980;2022-10-31T11:01:43;4.10;;;1.43;;
75866;SDS011;64513;56.258;43.980;2022-10-31T11:04:14;3.67;;;1.25;;
75866;SDS011;64513;56.258;43.980;2022-10-31T11:06:56;5.30;;;1.00;;
75866;SDS011;64513;56.258;43.980;2022-10-31T11:09:26;4.63;;;0.90;;
75866;SDS011;64513;56.258;43.980;2022-10-31T11:12:21;4.90;;;1.27;;
75866;SDS011;64513;56.258;43.980;2022-10-31T11:14:53;4.10;;;1.35;;
75866;SDS011;64513;56.258;43.980;2022-10-31T11:17:28;3.13;;;1.00;;
75866;SDS011;64513;56.258;43.980;2022-10-31T11:20:01;3.33;;;0.80;;
75866;SDS011;64513;56.258;43.980;2022-10-31T11:22:42;3.80;;;1.08;;
75866;SDS011;64513;56.258;43.980;2022-10-31T11:25:29;3.58;;;1.02;;
75866;SDS011;64513;56.258;43.980;2022-10-31T11:28:03;11.52;;;2.58;;
75866;SDS011;64513;56.258;43.980;2022-10-31T11:30:30;4.03;;;1.27;;
75866;SDS011;64513;56.258;43.980;2022-10-31T11:33:11;3.43;;;1.03;;
75866;SDS011;64513;56.258;43.980;2022-10-31T11:35:45;3.22;;;0.82;;
75866;SDS011;64513;56.258;43.980;2022-10-31T11:38:15;4.15;;;1.30;;
75866;SDS011;64513;56.258;43.980;2022-10-31T11:40:57;4.43;;;1.10;;
75866;SDS011;64513;56.258;43.980;2022-10-31T11:43:28;4.93;;;1.52;;
75866;SDS011;64513;56.258;43.980;2022-10-31T11:45:54;3.80;;;0.97;;
75866;SDS011;64513;56.258;43.980;2022-10-31T11:48:22;4.88;;;1.67;;
75866;SDS011;64513;56.258;43.980;2022-10-31T11:50:51;4.78;;;1.73;;
75866;SDS011;64513;56.258;43.980;2022-10-31T11:53:23;7.03;;;2.28;;
75866;SDS011;64513;56.258;43.980;2022-10-31T11:56:26;5.20;;;2.22;;
75866;SDS011;64513;56.258;43.980;2022-10-31T11:59:14;4.90;;;1.63;;
75866;SDS011;64513;56.258;43.980;2022-10-31T12:01:40;5.55;;;1.70;;
75866;SDS011;64513;56.258;43.980;2022-10-31T12:04:11;4.25;;;1.63;;
75866;SDS011;64513;56.258;43.980;2022-10-31T12:06:41;4.80;;;1.40;;
75866;SDS011;64513;56.258;43.980;2022-10-31T12:09:17;6.35;;;2.22;;
75866;SDS011;64513;56.258;43.980;2022-10-31T12:14:27;7.97;;;2.40;;
75866;SDS011;64513;56.258;43.980;2022-10-31T12:17:05;5.05;;;2.10;;
75866;SDS011;64513;56.258;43.980;2022-10-31T12:19:45;7.68;;;2.13;;
75866;SDS011;64513;56.258;43.980;2022-10-31T12:22:20;8.55;;;2.90;;
75866;SDS011;64513;56.258;43.980;2022-10-31T12:30:20;7.60;;;2.70;;
75866;SDS011;64513;56.258;43.980;2022-10-31T12:32:56;6.47;;;2.40;;
75866;SDS011;64513;56.258;43.980;2022-10-31T12:38:30;10.10;;;2.90;;
75866;SDS011;64513;56.258;43.980;2022-10-31T12:54:37;10.10;;;4.07;;
75866;SDS011;64513;56.258;43.980;2022-10-31T12:57:30;10.05;;;3.90;;
75866;SDS011;64513;56.258;43.980;2022-10-31T13:00:02;10.85;;;4.00;;
75866;SDS011;64513;56.258;43.980;2022-10-31T13:02:43;10.98;;;3.88;;
75866;SDS011;64513;56.258;43.980;2022-10-31T13:05:29;11.00;;;3.40;;
75866;SDS011;64513;56.258;43.980;2022-10-31T13:08:09;9.45;;;3.88;;
75866;SDS011;64513;56.258;43.980;2022-10-31T13:16:16;11.18;;;4.10;;
75866;SDS011;64513;56.258;43.980;2022-10-31T13:18:55;10.43;;;4.23;;
75866;SDS011;64513;56.258;43.980;2022-10-31T13:22:12;11.93;;;3.45;;
75866;SDS011;64513;56.258;43.980;2022-10-31T13:24:14;9.38;;;3.53;;
75866;SDS011;64513;56.258;43.980;2022-10-31T13:26:49;11.10;;;3.90;;
75866;SDS011;64513;56.258;43.980;2022-10-31T13:31:52;10.67;;;3.57;;
75866;SDS011;64513;56.258;43.980;2022-10-31T13:34:23;13.43;;;5.40;;
75866;SDS011;64513;56.258;43.980;2022-10-31T13:37:06;14.63;;;5.15;;
75866;SDS011;64513;56.258;43.980;2022-10-31T13:45:18;19.47;;;5.13;;
75866;SDS011;64513;56.258;43.980;2022-10-31T13:47:55;23.83;;;5.72;;
75866;SDS011;64513;56.258;43.980;2022-10-31T13:50:24;14.23;;;5.47;;
75866;SDS011;64513;56.258;43.980;2022-10-31T13:53:02;19.52;;;5.72;;
75866;SDS011;64513;56.258;43.980;2022-10-31T13:55:49;17.33;;;5.60;;
75866;SDS011;64513;56.258;43.980;2022-10-31T13:58:28;22.00;;;5.73;;
75866;SDS011;64513;56.258;43.980;2022-10-31T14:03:27;18.35;;;6.50;;
75866;SDS011;64513;56.258;43.980;2022-10-31T14:06:01;22.52;;;5.90;;
75866;SDS011;64513;56.258;43.980;2022-10-31T14:08:27;21.45;;;6.22;;
75866;SDS011;64513;56.258;43.980;2022-10-31T14:10:57;20.67;;;7.20;;
75866;SDS011;64513;56.258;43.980;2022-10-31T14:16:01;20.10;;;7.53;;
75866;SDS011;64513;56.258;43.980;2022-10-31T14:18:33;19.87;;;6.97;;
75866;SDS011;64513;56.258;43.980;2022-10-31T14:21:12;20.40;;;6.65;;
75866;SDS011;64513;56.258;43.980;2022-10-31T14:23:52;20.27;;;7.82;;
75866;SDS011;64513;56.258;43.980;2022-10-31T14:28:50;20.63;;;6.90;;
75866;SDS011;64513;56.258;43.980;2022-10-31T14:31:51;24.05;;;8.70;;
75866;SDS011;64513;56.258;43.980;2022-10-31T14:34:22;18.50;;;7.07;;
75866;SDS011;64513;56.258;43.980;2022-10-31T14:50:50;22.10;;;5.95;;
75866;SDS011;64513;56.258;43.980;2022-10-31T14:55:55;21.40;;;7.43;;
75866;SDS011;64513;56.258;43.980;2022-10-31T14:58:23;18.30;;;7.38;;
75866;SDS011;64513;56.258;43.980;2022-10-31T15:01:02;17.25;;;5.78;;
75866;SDS011;64513;56.258;43.980;2022-10-31T15:06:14;16.58;;;6.22;;
75866;SDS011;64513;56.258;43.980;2022-10-31T15:08:47;13.43;;;4.63;;
75866;SDS011;64513;56.258;43.980;2022-10-31T15:11:21;17.17;;;5.75;;
75866;SDS011;64513;56.258;43.980;2022-10-31T15:13:49;13.00;;;4.70;;
75866;SDS011;64513;56.258;43.980;2022-10-31T15:16:52;14.15;;;4.47;;
75866;SDS011;64513;56.258;43.980;2022-10-31T15:19:12;11.40;;;4.13;;
75866;SDS011;64513;56.258;43.980;2022-10-31T15:21:42;11.57;;;3.80;;
75866;SDS011;64513;56.258;43.980;2022-10-31T15:24:10;8.70;;;3.42;;
75866;SDS011;64513;56.258;43.980;2022-10-31T15:26:38;9.83;;;3.97;;
75866;SDS011;64513;56.258;43.980;2022-10-31T15:29:10;11.20;;;4.00;;
75866;SDS011;64513;56.258;43.980;2022-10-31T15:31:37;11.45;;;3.95;;
75866;SDS011;64513;56.258;43.980;2022-10-31T15:34:14;11.67;;;3.93;;
75866;SDS011;64513;56.258;43.980;2022-10-31T15:36:44;13.82;;;3.92;;
75866;SDS011;64513;56.258;43.980;2022-10-31T15:39:13;10.20;;;3.83;;
75866;SDS011;64513;56.258;43.980;2022-10-31T15:44:32;10.25;;;3.70;;
75866;SDS011;64513;56.258;43.980;2022-10-31T15:47:00;6.18;;;2.40;;
75866;SDS011;64513;56.258;43.980;2022-10-31T15:49:38;8.02;;;3.45;;
75866;SDS011;64513;56.258;43.980;2022-10-31T15:54:47;8.57;;;3.97;;
75866;SDS011;64513;56.258;43.980;2022-10-31T15:57:16;9.63;;;4.20;;
75866;SDS011;64513;56.258;43.980;2022-10-31T15:59:44;12.45;;;4.85;;
75866;SDS011;64513;56.258;43.980;2022-10-31T16:02:13;10.93;;;4.70;;
75866;SDS011;64513;56.258;43.980;2022-10-31T16:04:49;10.27;;;4.00;;
75866;SDS011;64513;56.258;43.980;2022-10-31T16:07:17;9.13;;;3.83;;
75866;SDS011;64513;56.258;43.980;2022-10-31T16:10:00;9.63;;;4.18;;
75866;SDS011;64513;56.258;43.980;2022-10-31T16:12:35;5.95;;;2.78;;
75866;SDS011;64513;56.258;43.980;2022-10-31T16:15:03;7.63;;;3.17;;
75866;SDS011;64513;56.258;43.980;2022-10-31T16:17:30;8.38;;;3.50;;
75866;SDS011;64513;56.258;43.980;2022-10-31T16:19:57;7.05;;;3.35;;
75866;SDS011;64513;56.258;43.980;2022-10-31T16:22:26;13.32;;;4.20;;
75866;SDS011;64513;56.258;43.980;2022-10-31T16:27:29;10.80;;;3.83;;
75866;SDS011;64513;56.258;43.980;2022-10-31T16:29:57;11.38;;;4.97;;
75866;SDS011;64513;56.258;43.980;2022-10-31T16:32:34;9.82;;;4.50;;
75866;SDS011;64513;56.258;43.980;2022-10-31T16:37:39;8.85;;;3.70;;
75866;SDS011;64513;56.258;43.980;2022-10-31T16:40:05;11.00;;;4.43;;
75866;SDS011;64513;56.258;43.980;2022-10-31T16:42:31;10.40;;;4.70;;
75866;SDS011;64513;56.258;43.980;2022-10-31T16:44:57;10.02;;;4.50;;
75866;SDS011;64513;56.258;43.980;2022-10-31T16:47:23;10.57;;;4.37;;
75866;SDS011;64513;56.258;43.980;2022-10-31T16:49:48;9.45;;;4.68;;
75866;SDS011;64513;56.258;43.980;2022-10-31T16:52:15;10.77;;;4.83;;
75866;SDS011;64513;56.258;43.980;2022-10-31T16:54:41;12.52;;;4.72;;
75866;SDS011;64513;56.258;43.980;2022-10-31T16:57:09;9.55;;;4.63;;
75866;SDS011;64513;56.258;43.980;2022-10-31T16:59:42;11.50;;;4.77;;
75866;SDS011;64513;56.258;43.980;2022-10-31T17:02:14;9.98;;;4.70;;
75866;SDS011;64513;56.258;43.980;2022-10-31T17:04:40;11.25;;;4.70;;
75866;SDS011;64513;56.258;43.980;2022-10-31T17:07:06;10.53;;;4.33;;
75866;SDS011;64513;56.258;43.980;2022-10-31T17:09:31;8.98;;;4.30;;
75866;SDS011;64513;56.258;43.980;2022-10-31T17:11:57;13.90;;;4.20;;
75866;SDS011;64513;56.258;43.980;2022-10-31T17:14:22;9.65;;;4.13;;
75866;SDS011;64513;56.258;43.980;2022-10-31T17:16:48;8.07;;;3.47;;
75866;SDS011;64513;56.258;43.980;2022-10-31T17:19:14;10.37;;;4.00;;
75866;SDS011;64513;56.258;43.980;2022-10-31T17:21:40;9.13;;;4.45;;
75866;SDS011;64513;56.258;43.980;2022-10-31T17:24:06;10.15;;;4.43;;
75866;SDS011;64513;56.258;43.980;2022-10-31T17:26:36;10.55;;;4.43;;
75866;SDS011;64513;56.258;43.980;2022-10-31T17:29:02;12.10;;;4.20;;